createdAt,value
2022-08-05T00:02:23.187Z,54.59
2022-08-05T00:04:55.174Z,54.73
2022-08-05T00:07:59.298Z,54.57
2022-08-05T00:10:12.923Z,54.48
2022-08-05T00:12:48.487Z,54.83
2022-08-05T00:15:56.310Z,55.15
2022-08-05T00:18:21.425Z,55.40
2022-08-05T00:20:50.566Z,55.79
2022-08-05T00:23:44.565Z,56.15
2022-08-05T00:26:07.593Z,56.02
2022-08-05T00:28:36.846Z,55.97
2022-08-05T00:31:05.579Z,56.36
2022-08-05T00:34:53.412Z,56.82
2022-08-05T00:37:11.667Z,56.60
2022-08-05T00:39:13.793Z,56.88
2022-08-05T00:41:51.606Z,56.78
2022-08-05T00:44:30.687Z,57.27
2022-08-05T00:47:01.870Z,57.18
2022-08-05T00:49:44.432Z,56.38
2022-08-05T00:52:28.292Z,56.82
2022-08-05T00:54:56.848Z,57.00
2022-08-05T00:57:31.754Z,57.28
2022-08-05T01:00:11.130Z,57.01
2022-08-05T01:02:41.312Z,57.75
2022-08-05T01:05:12.832Z,57.29
2022-08-05T01:08:41.598Z,57.02
2022-08-05T01:10:34.845Z,57.45
2022-08-05T01:13:13.201Z,57.38
2022-08-05T01:15:56.720Z,56.83
2022-08-05T01:18:27.866Z,55.83
2022-08-05T01:21:11.982Z,56.03
2022-08-05T01:23:58.159Z,56.14
2022-08-05T01:26:43.739Z,56.06
2022-08-05T01:29:27.138Z,56.16
2022-08-05T01:32:00.822Z,56.42
2022-08-05T01:34:33.144Z,56.66
2022-08-05T01:37:24.452Z,56.49
2022-08-05T01:39:58.744Z,56.43
2022-08-05T01:42:28.058Z,56.58
2022-08-05T01:45:00.006Z,56.69
2022-08-05T01:47:38.888Z,57.13
2022-08-05T01:50:15.660Z,56.98
2022-08-05T01:52:50.019Z,57.13
2022-08-05T01:55:20.166Z,57.79
2022-08-05T01:58:10.638Z,56.10
2022-08-05T02:00:39.763Z,57.01
2022-08-05T02:03:24.459Z,57.39
2022-08-05T02:06:33.502Z,57.44
2022-08-05T02:08:58.589Z,57.32
2022-08-05T02:11:32.747Z,57.77
2022-08-05T02:14:05.687Z,57.60
2022-08-05T02:16:44.750Z,57.74
2022-08-05T02:19:34.236Z,58.06
2022-08-05T02:22:25.929Z,58.50
2022-08-05T02:25:03.583Z,58.73
2022-08-05T02:27:58.121Z,58.83
2022-08-05T02:30:23.358Z,58.10
2022-08-05T02:32:55.757Z,58.10
2022-08-05T02:35:28.180Z,58.47
2022-08-05T02:38:02.641Z,58.34
2022-08-05T02:40:31.606Z,58.80
2022-08-05T02:43:01.235Z,58.70
2022-08-05T02:45:52.206Z,59.62
2022-08-05T02:48:18.738Z,59.94
2022-08-05T02:50:50.281Z,57.60
2022-08-05T02:53:20.818Z,56.19
2022-08-05T02:55:59.716Z,55.29
2022-08-05T02:58:30.958Z,58.85
2022-08-05T03:01:02.695Z,58.11
2022-08-05T03:03:33.726Z,57.38
2022-08-05T03:06:56.733Z,57.64
2022-08-05T03:08:52.447Z,58.97
2022-08-05T03:11:54.424Z,60.80
2022-08-05T03:14:13.367Z,61.77
2022-08-05T03:16:41.565Z,60.77
2022-08-05T03:19:12.847Z,61.09
2022-08-05T03:21:48.718Z,61.44
2022-08-05T03:24:29.225Z,60.76
2022-08-05T03:26:58.989Z,60.65
2022-08-05T03:29:45.136Z,59.45
2022-08-05T03:32:15.877Z,57.63
2022-08-05T03:34:50.693Z,56.79
2022-08-05T03:37:20.882Z,55.30
2022-08-05T03:39:58.479Z,54.10
2022-08-05T03:42:29.113Z,52.69
2022-08-05T03:45:01.610Z,51.19
2022-08-05T03:47:30.453Z,49.85
2022-08-05T03:50:03.627Z,48.20
2022-08-05T03:52:36.837Z,47.11
2022-08-05T03:56:10.874Z,45.87
2022-08-05T03:58:16.807Z,44.69
2022-08-05T04:00:46.457Z,43.34
2022-08-05T04:03:28.217Z,42.55
2022-08-05T04:05:59.167Z,41.82
2022-08-05T04:08:30.226Z,40.70
2022-08-05T04:11:08.554Z,40.33
2022-08-05T04:13:49.850Z,39.13
2022-08-05T04:16:25.011Z,38.23
2022-08-05T04:18:57.677Z,37.57
2022-08-05T04:22:08.505Z,36.68
2022-08-05T04:24:18.864Z,35.45
2022-08-05T04:26:50.850Z,34.51
2022-08-05T04:29:19.779Z,33.12
2022-08-05T04:31:48.435Z,32.58
2022-08-05T04:34:32.891Z,32.34
2022-08-05T04:37:03.246Z,31.62
2022-08-05T04:39:32.426Z,31.87
2022-08-05T04:42:03.861Z,31.20
2022-08-05T04:44:31.863Z,30.46
2022-08-05T04:47:00.207Z,30.24
2022-08-05T04:50:01.658Z,29.68
2022-08-05T04:52:27.364Z,28.51
2022-08-05T04:54:57.175Z,28.19
2022-08-05T04:57:29.229Z,28.46
2022-08-05T04:59:58.795Z,27.98
2022-08-05T05:02:36.464Z,27.74
2022-08-05T05:05:16.722Z,27.33
2022-08-05T05:08:01.668Z,26.25
2022-08-05T05:10:33.193Z,26.17
2022-08-05T05:13:03.807Z,25.97
2022-08-05T05:15:56.689Z,26.07
2022-08-05T05:18:31.113Z,25.23
2022-08-05T05:21:03.468Z,25.09
2022-08-05T05:23:50.365Z,24.85
2022-08-05T05:26:19.553Z,24.75
2022-08-05T05:28:57.045Z,25.08
2022-08-05T05:31:25.161Z,24.63
2022-08-05T05:34:02.470Z,23.68
2022-08-05T05:36:31.414Z,23.80
2022-08-05T05:38:59.813Z,24.00
2022-08-05T05:41:40.467Z,23.68
2022-08-05T05:44:35.589Z,23.01
2022-08-05T05:46:58.216Z,22.76
2022-08-05T05:49:26.820Z,23.57
2022-08-05T05:51:55.417Z,23.87
2022-08-05T05:54:49.870Z,23.09
2022-08-05T05:57:13.838Z,22.70
2022-08-05T05:59:48.823Z,22.60
2022-08-05T06:02:17.306Z,22.18
2022-08-05T06:05:01.394Z,21.86
2022-08-05T06:07:42.164Z,22.23
2022-08-05T06:10:10.780Z,22.43
2022-08-05T06:12:42.192Z,22.82
2022-08-05T06:15:16.514Z,23.21
2022-08-05T06:17:53.609Z,23.33
2022-08-05T06:20:23.236Z,23.77
2022-08-05T06:22:51.543Z,24.33
2022-08-05T06:25:59.642Z,24.34
2022-08-05T06:28:12.210Z,24.58
2022-08-05T06:30:49.188Z,24.78
2022-08-05T06:33:19.195Z,25.42
2022-08-05T06:36:07.270Z,26.32
2022-08-05T06:38:35.781Z,26.36
2022-08-05T06:41:07.637Z,26.32
2022-08-05T06:43:58.137Z,26.30
2022-08-05T06:46:29.810Z,25.98
2022-08-05T06:49:01.347Z,25.63
2022-08-05T06:51:30.910Z,25.78
2022-08-05T06:54:00.367Z,25.40
2022-08-05T06:56:34.366Z,24.68
2022-08-05T06:59:09.447Z,24.22
2022-08-05T07:01:40.883Z,23.41
2022-08-05T07:04:10.445Z,23.34
2022-08-05T07:06:38.207Z,22.88
2022-08-05T07:09:05.994Z,22.78
2022-08-05T07:11:37.215Z,22.99
2022-08-05T07:14:29.573Z,23.43
2022-08-05T07:18:00.824Z,23.81
2022-08-05T07:22:42.337Z,26.28
2022-08-05T07:25:23.487Z,25.81
2022-08-05T07:28:04.104Z,24.84
2022-08-05T07:30:38.711Z,24.18
2022-08-05T07:33:15.702Z,23.62
2022-08-05T07:36:02.310Z,23.15
2022-08-05T07:38:43.086Z,22.70
2022-08-05T07:42:08.677Z,22.33
2022-08-05T07:44:06.519Z,22.29
2022-08-05T07:46:48.261Z,21.61
2022-08-05T07:49:16.638Z,21.60
2022-08-05T07:51:53.878Z,21.73
2022-08-05T07:54:31.169Z,21.99
2022-08-05T07:57:22.425Z,22.50
2022-08-05T07:59:48.836Z,22.53
2022-08-05T08:02:19.194Z,23.06
2022-08-05T08:04:47.705Z,23.67
2022-08-05T08:07:22.121Z,24.32
2022-08-05T08:09:52.082Z,23.45
2022-08-05T08:12:33.446Z,22.84
2022-08-05T08:15:15.291Z,23.03
2022-08-05T08:17:52.764Z,22.93
2022-08-05T08:21:00.344Z,22.65
2022-08-05T08:24:00.400Z,24.29
2022-08-05T08:25:59.225Z,24.64
2022-08-05T08:28:36.926Z,23.44
2022-08-05T08:31:18.684Z,22.42
2022-08-05T08:33:51.715Z,21.14
2022-08-05T08:36:40.103Z,20.82
2022-08-05T08:39:15.033Z,20.86
2022-08-05T08:41:52.497Z,20.97
2022-08-05T08:45:17.947Z,22.27
2022-08-05T08:48:06.205Z,21.71
2022-08-05T08:50:31.807Z,21.45
2022-08-05T08:53:02.394Z,20.92
2022-08-05T08:56:03.421Z,19.90
2022-08-05T08:58:37.445Z,19.72
2022-08-05T09:01:16.206Z,20.19
2022-08-05T09:03:55.194Z,22.08
2022-08-05T09:06:29.022Z,23.00
2022-08-05T09:08:59.154Z,21.88
2022-08-05T09:11:53.340Z,21.79
2022-08-05T09:14:56.691Z,21.16
2022-08-05T09:17:16.173Z,20.31
2022-08-05T09:20:02.772Z,19.98
2022-08-05T09:22:52.069Z,19.95
2022-08-05T09:25:24.107Z,21.54
2022-08-05T09:28:10.968Z,21.51
2022-08-05T09:31:22.890Z,21.97
2022-08-05T09:33:52.659Z,21.68
2022-08-05T09:36:27.779Z,21.97
2022-08-05T09:39:16.580Z,22.02
2022-08-05T09:41:59.483Z,22.12
2022-08-05T09:44:49.310Z,21.95
2022-08-05T09:47:20.548Z,21.86
2022-08-05T09:50:02.337Z,22.05
2022-08-05T09:52:31.333Z,22.74
2022-08-05T09:55:57.131Z,22.30
2022-08-05T09:57:58.603Z,21.89
2022-08-05T10:00:30.461Z,21.93
2022-08-05T10:02:59.137Z,21.79
2022-08-05T10:05:28.471Z,21.47
2022-08-05T10:08:34.677Z,21.23
2022-08-05T10:10:44.225Z,21.31
2022-08-05T10:13:25.924Z,22.16
2022-08-05T10:16:00.728Z,22.29
2022-08-05T10:18:32.192Z,21.98
2022-08-05T10:21:11.804Z,21.83
2022-08-05T10:23:59.529Z,22.15
2022-08-05T10:26:32.591Z,22.33
2022-08-05T10:29:02.788Z,21.84
2022-08-05T10:32:52.512Z,21.54
2022-08-05T10:34:20.214Z,21.32
2022-08-05T10:36:54.057Z,20.74
2022-08-05T10:39:59.075Z,19.41
2022-08-05T10:42:18.648Z,18.56
2022-08-05T10:44:51.106Z,18.39
2022-08-05T10:47:26.676Z,19.14
2022-08-05T10:50:33.177Z,19.54
2022-08-05T10:53:00.130Z,19.78
2022-08-05T10:55:28.449Z,20.15
2022-08-05T10:58:11.340Z,20.19
2022-08-05T11:00:45.803Z,20.48
2022-08-05T11:03:25.349Z,20.28
2022-08-05T11:06:05.188Z,20.04
2022-08-05T11:08:37.063Z,20.62
2022-08-05T11:11:24.694Z,20.77
2022-08-05T11:14:07.442Z,20.36
2022-08-05T11:16:56.091Z,20.36
2022-08-05T11:20:17.345Z,20.21
2022-08-05T11:22:36.698Z,19.58
2022-08-05T11:26:04.814Z,19.32
2022-08-05T11:28:17.237Z,19.46
2022-08-05T11:30:58.312Z,19.93
2022-08-05T11:33:44.223Z,20.28
2022-08-05T11:36:34.257Z,19.92
2022-08-05T11:39:06.035Z,19.54
2022-08-05T11:42:01.446Z,19.01
2022-08-05T11:44:52.957Z,19.27
2022-08-05T11:47:18.628Z,19.04
2022-08-05T11:49:55.124Z,19.11
2022-08-05T11:52:29.528Z,18.80
2022-08-05T11:54:59.111Z,18.67
2022-08-05T11:57:39.305Z,18.77
2022-08-05T12:00:30.718Z,18.28
2022-08-05T12:03:15.742Z,18.07
2022-08-05T12:05:51.986Z,17.79
2022-08-05T12:08:21.770Z,17.96
2022-08-05T12:10:58.960Z,17.90
2022-08-05T12:13:48.391Z,17.86
2022-08-05T12:16:18.921Z,17.81
2022-08-05T12:18:49.554Z,17.70
2022-08-05T12:21:42.460Z,17.23
2022-08-05T12:24:11.816Z,17.20
2022-08-05T12:26:45.723Z,17.35
2022-08-05T12:29:22.532Z,17.62
2022-08-05T12:31:55.184Z,17.91
2022-08-05T12:34:26.894Z,18.08
2022-08-05T12:36:56.234Z,18.10
2022-08-05T12:39:34.390Z,18.01
2022-08-05T12:42:14.684Z,17.97
2022-08-05T12:44:44.649Z,18.03
2022-08-05T12:47:17.141Z,18.35
2022-08-05T12:50:02.225Z,18.50
2022-08-05T12:52:41.796Z,18.14
2022-08-05T12:55:23.890Z,17.62
2022-08-05T12:58:50.148Z,17.70
2022-08-05T13:02:03.141Z,17.35
2022-08-05T13:03:34.382Z,17.09
2022-08-05T13:06:08.153Z,17.66
2022-08-05T13:08:40.055Z,18.04
2022-08-05T13:11:08.013Z,17.77
2022-08-05T13:14:04.813Z,17.73
2022-08-05T13:16:27.840Z,17.64
2022-08-05T13:18:58.435Z,17.53
2022-08-05T13:21:27.962Z,17.24
2022-08-05T13:24:08.744Z,17.27
2022-08-05T13:26:36.864Z,17.20
2022-08-05T13:29:05.383Z,17.00
2022-08-05T13:32:03.826Z,17.20
2022-08-05T13:34:25.830Z,17.48
2022-08-05T13:36:54.577Z,17.58
2022-08-05T13:40:13.819Z,17.57
2022-08-05T13:42:14.498Z,17.57
2022-08-05T13:44:45.788Z,18.01
2022-08-05T13:47:35.754Z,18.20
2022-08-05T13:50:04.370Z,18.31
2022-08-05T13:52:35.547Z,18.23
2022-08-05T13:55:07.862Z,18.00
2022-08-05T13:57:51.184Z,18.02
2022-08-05T14:00:27.010Z,17.89
2022-08-05T14:02:56.681Z,17.73
2022-08-05T14:05:47.948Z,17.78
2022-08-05T14:08:21.430Z,17.46
2022-08-05T14:10:59.695Z,17.34
2022-08-05T14:13:35.955Z,17.46
2022-08-05T14:16:07.499Z,17.69
2022-08-05T14:18:39.304Z,17.56
2022-08-05T14:22:08.272Z,17.84
2022-08-05T14:23:55.776Z,18.23
2022-08-05T14:26:36.751Z,18.23
2022-08-05T14:29:16.324Z,18.41
2022-08-05T14:32:02.650Z,18.75
2022-08-05T14:34:35.404Z,19.30
2022-08-05T14:37:04.720Z,19.35
2022-08-05T14:39:49.737Z,19.23
2022-08-05T14:42:22.345Z,19.37
2022-08-05T14:44:50.443Z,19.24
2022-08-05T14:47:23.990Z,19.28
2022-08-05T14:50:18.445Z,18.99
2022-08-05T14:52:53.546Z,19.19
2022-08-05T14:55:38.529Z,19.75
2022-08-05T14:58:11.738Z,19.92
2022-08-05T15:00:59.521Z,19.86
2022-08-05T15:03:33.968Z,19.60
2022-08-05T15:06:14.930Z,19.60
2022-08-05T15:08:59.534Z,19.29
2022-08-05T15:11:51.712Z,19.49
2022-08-05T15:14:35.880Z,19.25
2022-08-05T15:17:44.959Z,19.18
2022-08-05T15:19:57.402Z,19.12
2022-08-05T15:22:27.219Z,19.36
2022-08-05T15:24:56.962Z,19.24
2022-08-05T15:27:25.966Z,19.68
2022-08-05T15:29:56.653Z,19.75
2022-08-05T15:32:27.152Z,20.34
2022-08-05T15:34:55.873Z,20.60
2022-08-05T15:38:34.179Z,20.66
2022-08-05T15:41:03.338Z,20.87
2022-08-05T15:43:10.842Z,21.09
2022-08-05T15:45:45.769Z,20.82
2022-08-05T15:48:15.423Z,21.10
2022-08-05T15:50:46.382Z,20.90
2022-08-05T15:53:14.794Z,20.97
2022-08-05T15:56:03.141Z,21.11
2022-08-05T15:58:35.731Z,20.89
2022-08-05T16:01:16.975Z,21.34
2022-08-05T16:03:50.595Z,21.38
2022-08-05T16:06:20.776Z,21.49
2022-08-05T16:08:53.588Z,21.59
2022-08-05T16:11:42.728Z,21.53
2022-08-05T16:14:17.230Z,21.73
2022-08-05T16:16:46.426Z,21.75
2022-08-05T16:19:19.169Z,21.87
2022-08-05T16:22:03.391Z,21.92
2022-08-05T16:24:39.800Z,22.42
2022-08-05T16:27:09.076Z,22.40
2022-08-05T16:29:37.150Z,22.55
2022-08-05T16:32:09.799Z,22.55
2022-08-05T16:34:39.371Z,22.46
2022-08-05T16:38:01.756Z,22.81
2022-08-05T16:40:05.612Z,23.18
2022-08-05T16:42:35.704Z,23.31
2022-08-05T16:46:02.765Z,23.51
2022-08-05T16:47:55.565Z,23.58
2022-08-05T16:50:26.723Z,23.91
2022-08-05T16:52:56.399Z,24.74
2022-08-05T16:55:24.595Z,25.33
2022-08-05T16:57:59.940Z,25.73
2022-08-05T17:00:35.043Z,26.24
2022-08-05T17:03:09.189Z,26.60
2022-08-05T17:05:44.190Z,27.00
2022-08-05T17:08:36.458Z,28.10
2022-08-05T17:11:08.847Z,28.57
2022-08-05T17:13:41.235Z,28.96
2022-08-05T17:16:28.023Z,29.15
2022-08-05T17:18:57.386Z,29.80
2022-08-05T17:21:25.404Z,30.40
2022-08-05T17:24:28.173Z,30.60
2022-08-05T17:26:59.890Z,30.82
2022-08-05T17:29:33.546Z,30.67
2022-08-05T17:32:11.957Z,31.05
2022-08-05T17:34:46.189Z,30.79
2022-08-05T17:37:40.546Z,31.23
2022-08-05T17:40:11.008Z,30.91
2022-08-05T17:42:42.940Z,31.31
2022-08-05T17:45:25.129Z,31.40
2022-08-05T17:48:08.263Z,32.03
2022-08-05T17:50:36.368Z,32.29
2022-08-05T17:53:05.167Z,32.17
2022-08-05T17:55:37.791Z,31.95
2022-08-05T17:58:12.395Z,32.00
2022-08-05T18:00:45.093Z,32.24
2022-08-05T18:03:39.227Z,32.53
2022-08-05T18:06:12.098Z,32.91
2022-08-05T18:08:45.489Z,32.76
2022-08-05T18:11:24.778Z,32.64
2022-08-05T18:14:03.686Z,32.85
2022-08-05T18:16:32.682Z,33.30
2022-08-05T18:19:00.425Z,33.13
2022-08-05T18:22:08.916Z,33.18
2022-08-05T18:24:16.157Z,32.85
2022-08-05T18:26:44.272Z,32.29
2022-08-05T18:29:12.154Z,31.97
2022-08-05T18:31:44.873Z,32.00
2022-08-05T18:34:13.333Z,31.93
2022-08-05T18:36:43.519Z,33.19
2022-08-05T18:39:42.591Z,34.31
2022-08-05T18:42:06.067Z,35.40
2022-08-05T18:44:49.182Z,35.60
2022-08-05T18:47:26.641Z,35.15
2022-08-05T18:50:21.423Z,34.58
2022-08-05T18:53:20.833Z,34.79
2022-08-05T18:55:52.450Z,35.38
2022-08-05T18:58:27.382Z,35.44
2022-08-05T19:00:57.170Z,34.10
2022-08-05T19:03:54.943Z,34.32
2022-08-05T19:06:22.205Z,35.88
2022-08-05T19:09:01.449Z,36.19
2022-08-05T19:11:37.144Z,35.78
2022-08-05T19:14:59.449Z,35.31
2022-08-05T19:17:07.721Z,35.98
2022-08-05T19:19:35.718Z,35.40
2022-08-05T19:22:12.571Z,35.64
2022-08-05T19:24:54.577Z,35.89
2022-08-05T19:27:27.750Z,35.83
2022-08-05T19:29:58.547Z,36.08
2022-08-05T19:32:27.900Z,37.19
2022-08-05T19:34:56.539Z,36.93
2022-08-05T19:37:47.291Z,36.80
2022-08-05T19:40:17.741Z,36.32
2022-08-05T19:43:00.675Z,37.05
2022-08-05T19:45:36.303Z,36.47
2022-08-05T19:48:05.455Z,36.46
2022-08-05T19:50:35.084Z,36.51
2022-08-05T19:53:10.532Z,36.48
2022-08-05T19:56:14.386Z,36.27
2022-08-05T19:58:28.555Z,36.32
2022-08-05T20:00:58.497Z,36.16
2022-08-05T20:03:27.494Z,36.04
2022-08-05T20:06:11.747Z,36.30
2022-08-05T20:08:47.345Z,36.29
2022-08-05T20:11:18.114Z,36.41
2022-08-05T20:13:59.124Z,36.36
2022-08-05T20:16:35.141Z,36.39
2022-08-05T20:19:04.354Z,36.36
2022-08-05T20:21:32.347Z,36.43
2022-08-05T20:24:01.122Z,36.28
2022-08-05T20:26:29.638Z,36.71
2022-08-05T20:29:00.702Z,36.98
2022-08-05T20:31:42.051Z,36.81
2022-08-05T20:34:17.215Z,37.25
2022-08-05T20:36:45.015Z,37.63
2022-08-05T20:39:13.859Z,37.92
2022-08-05T20:41:47.975Z,38.27
2022-08-05T20:44:30.668Z,39.01
2022-08-05T20:47:04.074Z,39.30
2022-08-05T20:49:37.850Z,39.65
2022-08-05T20:52:07.484Z,39.96
2022-08-05T20:54:42.873Z,40.35
2022-08-05T20:57:42.372Z,40.75
2022-08-05T21:00:40.459Z,41.15
2022-08-05T21:03:07.454Z,41.22
2022-08-05T21:05:47.637Z,40.92
2022-08-05T21:08:32.910Z,41.70
2022-08-05T21:11:12.006Z,41.74
2022-08-05T21:13:48.262Z,41.72
2022-08-05T21:16:29.476Z,42.44
2022-08-05T21:19:00.062Z,42.55
2022-08-05T21:21:44.310Z,43.02
2022-08-05T21:24:19.615Z,43.27
2022-08-05T21:26:53.761Z,43.23
2022-08-05T21:29:32.125Z,43.09
2022-08-05T21:32:03.357Z,42.98
2022-08-05T21:34:31.775Z,43.18
2022-08-05T21:37:01.773Z,43.55
2022-08-05T21:39:30.572Z,43.68
2022-08-05T21:42:02.857Z,44.28
2022-08-05T21:44:31.638Z,44.34
2022-08-05T21:47:00.490Z,44.68
2022-08-05T21:49:58.746Z,44.84
2022-08-05T21:52:27.205Z,45.02
2022-08-05T21:54:57.795Z,45.04
2022-08-05T21:57:35.649Z,45.38
2022-08-05T22:00:10.742Z,46.01
2022-08-05T22:02:42.920Z,46.26
2022-08-05T22:05:11.983Z,46.10
2022-08-05T22:07:59.161Z,46.01
2022-08-05T22:10:31.014Z,46.12
2022-08-05T22:14:06.407Z,46.12
2022-08-05T22:16:00.852Z,46.53
2022-08-05T22:18:32.634Z,46.61
2022-08-05T22:21:04.224Z,46.74
2022-08-05T22:24:02.320Z,46.89
2022-08-05T22:26:50.513Z,46.53
2022-08-05T22:29:26.317Z,46.23
2022-08-05T22:31:55.125Z,45.66
2022-08-05T22:34:31.894Z,45.66
2022-08-05T22:37:00.209Z,46.02
2022-08-05T22:39:33.224Z,46.80
2022-08-05T22:42:10.738Z,47.34
2022-08-05T22:44:48.574Z,47.40
2022-08-05T22:47:29.406Z,47.34
2022-08-05T22:50:19.081Z,47.50
2022-08-05T22:52:48.552Z,47.49
2022-08-05T22:55:19.010Z,47.47
2022-08-05T22:57:49.317Z,47.98
2022-08-05T23:00:20.830Z,48.41
2022-08-05T23:02:50.552Z,48.23
2022-08-05T23:05:19.088Z,48.68
2022-08-05T23:07:51.156Z,48.85
2022-08-05T23:10:20.920Z,49.22
2022-08-05T23:12:55.121Z,49.15
2022-08-05T23:15:26.879Z,49.62
2022-08-05T23:18:01.376Z,49.99
2022-08-05T23:20:37.393Z,49.98
2022-08-05T23:23:08.635Z,49.58
2022-08-05T23:25:52.052Z,49.98
2022-08-05T23:28:29.182Z,49.85
2022-08-05T23:31:16.231Z,49.90
2022-08-05T23:34:04.820Z,49.89
2022-08-05T23:36:39.857Z,49.70
2022-08-05T23:39:17.279Z,50.06
2022-08-05T23:42:00.432Z,49.95
2022-08-05T23:44:31.326Z,50.48
2022-08-05T23:47:02.475Z,50.20
2022-08-05T23:49:46.094Z,50.21
2022-08-05T23:52:36.137Z,50.35
2022-08-05T23:55:19.137Z,50.34
2022-08-05T23:57:49.028Z,50.77
